createdAt,value
2018-05-10T00:00:49.554Z,11.52
2018-05-10T00:03:58.973Z,10.70
2018-05-10T00:07:08.376Z,11.32
2018-05-10T00:10:18.222Z,10.80
2018-05-10T00:13:28.482Z,10.77
2018-05-10T00:16:38.350Z,10.50
2018-05-10T00:19:48.248Z,9.50
2018-05-10T00:22:58.457Z,8.15
2018-05-10T00:26:08.721Z,9.40
2018-05-10T00:29:18.625Z,9.63
2018-05-10T00:32:27.995Z,8.80
2018-05-10T00:35:37.897Z,9.43
2018-05-10T00:38:47.727Z,20.67
2018-05-10T00:41:58.599Z,9.27
2018-05-10T00:45:08.540Z,14.18
2018-05-10T00:48:18.383Z,10.70
2018-05-10T00:51:27.722Z,10.75
2018-05-10T00:54:54.815Z,8.23
2018-05-10T00:58:04.505Z,9.73
2018-05-10T01:01:14.029Z,10.07
2018-05-10T01:04:23.783Z,19.98
2018-05-10T01:07:33.091Z,18.12
2018-05-10T01:10:42.910Z,11.68
2018-05-10T01:13:52.318Z,12.57
2018-05-10T01:17:02.212Z,11.25
2018-05-10T01:20:12.062Z,12.82
2018-05-10T01:23:21.712Z,12.48
2018-05-10T01:26:31.119Z,9.77
2018-05-10T01:29:41.048Z,12.25
2018-05-10T01:32:51.292Z,12.80
2018-05-10T01:36:14.792Z,10.93
2018-05-10T01:39:24.147Z,13.93
2018-05-10T01:42:33.985Z,18.67
2018-05-10T01:45:43.437Z,11.48
2018-05-10T01:48:52.742Z,12.68
2018-05-10T01:52:02.573Z,14.27
2018-05-10T01:55:12.551Z,15.32
2018-05-10T01:58:22.903Z,14.13
2018-05-10T02:01:32.946Z,12.60
2018-05-10T02:04:42.872Z,10.68
2018-05-10T02:07:52.413Z,10.93
2018-05-10T02:11:02.084Z,11.85
2018-05-10T02:14:12.300Z,12.40
2018-05-10T02:17:22.588Z,12.60
2018-05-10T02:20:31.863Z,12.52
2018-05-10T02:23:41.259Z,15.05
2018-05-10T02:26:51.708Z,15.10
2018-05-10T02:30:01.121Z,19.12
2018-05-10T02:33:10.583Z,19.52
2018-05-10T02:36:20.834Z,13.70
2018-05-10T02:39:30.300Z,13.52
2018-05-10T02:42:40.518Z,15.30
2018-05-10T02:45:51.325Z,11.88
2018-05-10T02:49:00.875Z,12.85
2018-05-10T02:52:10.681Z,15.25
2018-05-10T02:55:20.086Z,17.60
2018-05-10T02:58:29.361Z,16.23
2018-05-10T03:01:38.854Z,17.62
2018-05-10T03:04:49.164Z,15.57
2018-05-10T03:07:58.985Z,17.83
2018-05-10T03:11:08.964Z,18.92
2018-05-10T03:14:18.845Z,22.75
2018-05-10T03:17:28.279Z,25.52
2018-05-10T03:20:38.332Z,34.92
2018-05-10T03:23:47.917Z,40.30
2018-05-10T03:26:59.080Z,59.30
2018-05-10T03:30:08.538Z,64.57
2018-05-10T03:33:18.368Z,76.65
2018-05-10T03:36:28.195Z,91.95
2018-05-10T03:39:37.627Z,78.68
2018-05-10T03:42:48.129Z,98.18
2018-05-10T03:45:58.124Z,96.07
2018-05-10T03:49:08.128Z,100.93
2018-05-10T03:52:18.282Z,108.25
2018-05-10T03:55:27.724Z,103.28
2018-05-10T03:58:37.229Z,112.57
2018-05-10T04:01:46.779Z,107.45
2018-05-10T04:05:14.954Z,111.22
2018-05-10T04:12:07.643Z,117.55
2018-05-10T04:15:16.996Z,118.68
2018-05-10T04:18:30.921Z,118.78
2018-05-10T04:21:41.308Z,118.28
2018-05-10T04:24:51.175Z,114.50
2018-05-10T04:28:00.660Z,114.40
2018-05-10T04:31:10.496Z,122.40
2018-05-10T04:34:20.488Z,94.35
2018-05-10T04:37:30.774Z,116.40
2018-05-10T04:40:40.252Z,109.57
2018-05-10T04:43:49.685Z,104.90
2018-05-10T04:46:59.872Z,96.50
2018-05-10T04:50:09.354Z,94.40
2018-05-10T04:53:18.907Z,93.07
2018-05-10T04:56:28.227Z,84.97
2018-05-10T04:59:37.547Z,86.57
2018-05-10T05:02:47.292Z,78.62
2018-05-10T05:05:56.759Z,68.35
2018-05-10T05:09:06.632Z,84.62
2018-05-10T05:12:16.137Z,78.43
2018-05-10T05:15:25.537Z,72.37
2018-05-10T05:18:38.906Z,69.43
2018-05-10T05:21:48.449Z,67.63
2018-05-10T05:24:58.272Z,69.20
2018-05-10T05:28:08.471Z,53.57
2018-05-10T05:31:17.927Z,63.92
2018-05-10T05:34:27.906Z,54.27
2018-05-10T05:37:37.817Z,57.58
2018-05-10T05:40:47.395Z,63.22
2018-05-10T05:43:56.881Z,67.78
2018-05-10T05:47:06.368Z,57.20
2018-05-10T05:50:16.599Z,56.60
2018-05-10T05:53:26.272Z,58.83
2018-05-10T05:56:36.534Z,53.83
2018-05-10T05:59:45.950Z,50.83
2018-05-10T06:02:55.189Z,47.27
2018-05-10T06:06:05.463Z,54.37
2018-05-10T06:09:15.275Z,57.40
2018-05-10T06:12:24.742Z,51.13
2018-05-10T06:15:34.421Z,56.77
2018-05-10T06:18:44.533Z,58.13
2018-05-10T06:21:54.090Z,70.70
2018-05-10T06:25:05.438Z,69.87
2018-05-10T06:28:15.017Z,72.27
2018-05-10T06:31:30.326Z,67.17
2018-05-10T06:34:41.354Z,76.73
2018-05-10T06:37:52.472Z,57.87
2018-05-10T06:41:02.063Z,51.23
2018-05-10T06:44:12.770Z,55.05
2018-05-10T06:47:22.440Z,49.15
2018-05-10T06:50:32.488Z,57.67
2018-05-10T06:53:41.890Z,41.37
2018-05-10T06:56:52.638Z,35.67
2018-05-10T07:00:02.038Z,37.00
2018-05-10T07:03:11.363Z,39.30
2018-05-10T07:06:21.666Z,36.20
2018-05-10T07:09:31.691Z,34.07
2018-05-10T07:12:41.988Z,32.40
2018-05-10T07:15:52.405Z,37.50
2018-05-10T07:19:01.861Z,32.63
2018-05-10T07:22:12.099Z,36.72
2018-05-10T07:25:22.194Z,37.80
2018-05-10T07:28:31.669Z,33.00
2018-05-10T07:31:46.038Z,30.60
2018-05-10T07:34:55.768Z,30.63
2018-05-10T07:38:07.491Z,27.30
2018-05-10T07:41:16.852Z,25.73
2018-05-10T07:44:26.451Z,23.70
2018-05-10T07:47:35.981Z,27.53
2018-05-10T07:50:46.168Z,28.03
2018-05-10T07:53:57.693Z,30.50
2018-05-10T07:57:09.411Z,28.37
2018-05-10T08:00:19.296Z,34.07
2018-05-10T08:03:29.002Z,30.03
2018-05-10T08:06:47.057Z,32.23
2018-05-10T08:09:56.843Z,32.50
2018-05-10T08:13:06.734Z,33.05
2018-05-10T08:16:17.227Z,34.92
2018-05-10T08:19:27.403Z,28.57
2018-05-10T08:22:37.708Z,26.55
2018-05-10T08:25:47.595Z,27.70
2018-05-10T08:28:57.578Z,26.95
2018-05-10T08:32:07.908Z,30.43
2018-05-10T08:35:17.997Z,28.15
2018-05-10T08:38:28.303Z,29.30
2018-05-10T08:41:37.916Z,25.75
2018-05-10T08:44:47.355Z,22.35
2018-05-10T08:47:57.209Z,21.80
2018-05-10T08:51:07.296Z,19.67
2018-05-10T08:54:17.074Z,25.00
2018-05-10T08:57:31.251Z,23.42
2018-05-10T09:00:41.609Z,21.12
2018-05-10T09:03:51.961Z,19.80
2018-05-10T09:07:01.328Z,20.05
2018-05-10T09:10:13.413Z,18.10
2018-05-10T09:13:22.880Z,18.95
2018-05-10T09:16:32.804Z,18.58
2018-05-10T09:19:42.429Z,15.65
2018-05-10T09:22:51.922Z,16.52
2018-05-10T09:26:01.792Z,17.73
2018-05-10T09:29:13.470Z,14.90
2018-05-10T09:32:22.996Z,13.68
2018-05-10T09:35:33.006Z,11.30
2018-05-10T09:38:43.143Z,10.77
2018-05-10T09:41:53.329Z,14.13
2018-05-10T09:45:03.189Z,9.68
2018-05-10T09:48:15.473Z,14.40
2018-05-10T09:51:25.370Z,14.27
2018-05-10T09:54:34.927Z,13.80
2018-05-10T09:57:45.439Z,14.68
2018-05-10T10:00:55.979Z,14.68
2018-05-10T10:04:06.890Z,16.80
2018-05-10T10:07:16.795Z,14.90
2018-05-10T10:10:26.255Z,14.77
2018-05-10T10:13:35.737Z,14.02
2018-05-10T10:16:45.088Z,16.50
2018-05-10T10:19:55.388Z,11.80
2018-05-10T10:23:05.657Z,18.35
2018-05-10T10:26:17.043Z,15.77
2018-05-10T10:29:26.620Z,15.18
2018-05-10T10:32:36.886Z,15.10
2018-05-10T10:35:46.479Z,15.30
2018-05-10T10:38:56.461Z,16.73
2018-05-10T10:42:06.801Z,18.23
2018-05-10T10:45:17.135Z,18.65
2018-05-10T10:48:27.033Z,17.50
2018-05-10T10:51:37.020Z,20.45
2018-05-10T10:54:47.477Z,18.98
2018-05-10T10:57:57.586Z,22.45
2018-05-10T11:01:07.144Z,21.87
2018-05-10T11:04:18.002Z,20.20
2018-05-10T11:07:27.853Z,26.67
2018-05-10T11:10:38.092Z,25.90
2018-05-10T11:13:47.977Z,25.52
2018-05-10T11:16:58.004Z,25.37
2018-05-10T11:20:07.679Z,31.73
2018-05-10T11:23:23.433Z,29.40
2018-05-10T11:26:32.800Z,31.57
2018-05-10T11:29:42.309Z,31.37
2018-05-10T11:32:51.845Z,36.23
2018-05-10T11:36:01.542Z,36.10
2018-05-10T11:39:11.409Z,27.33
2018-05-10T11:42:20.840Z,33.90
2018-05-10T11:45:30.738Z,34.33
2018-05-10T11:48:40.469Z,28.67
2018-05-10T11:51:50.110Z,31.63
2018-05-10T11:55:00.356Z,33.57
2018-05-10T11:58:10.644Z,30.97
2018-05-10T12:01:20.938Z,33.50
2018-05-10T12:04:30.367Z,33.43
2018-05-10T12:07:40.044Z,34.47
2018-05-10T12:10:50.831Z,39.07
2018-05-10T12:14:00.391Z,32.07
2018-05-10T12:17:10.142Z,27.47
2018-05-10T12:20:21.038Z,27.73
2018-05-10T12:23:30.487Z,32.63
2018-05-10T12:26:39.955Z,35.30
2018-05-10T12:29:49.795Z,26.37
2018-05-10T12:32:59.247Z,30.33
2018-05-10T12:36:10.357Z,25.77
2018-05-10T12:39:21.728Z,20.33
2018-05-10T12:42:32.015Z,22.00
2018-05-10T12:45:41.501Z,14.40
2018-05-10T12:48:52.293Z,13.37
2018-05-10T12:52:01.605Z,12.40
2018-05-10T12:55:11.560Z,21.90
2018-05-10T12:58:23.657Z,15.33
2018-05-10T13:01:33.847Z,19.03
2018-05-10T13:04:43.615Z,19.60
2018-05-10T13:07:53.891Z,18.13
2018-05-10T13:11:03.758Z,17.10
2018-05-10T13:14:17.091Z,21.63
2018-05-10T13:17:26.513Z,18.23
2018-05-10T13:20:36.109Z,21.50
2018-05-10T13:23:46.241Z,24.77
2018-05-10T13:26:55.751Z,22.80
2018-05-10T13:30:05.769Z,22.30
2018-05-10T13:33:15.393Z,27.07
2018-05-10T13:36:25.840Z,28.03
2018-05-10T13:39:35.949Z,29.70
2018-05-10T13:42:50.623Z,23.83
2018-05-10T13:45:59.991Z,27.53
2018-05-10T13:49:09.553Z,25.93
2018-05-10T13:52:19.789Z,24.67
2018-05-10T13:55:29.327Z,30.40
2018-05-10T13:58:38.921Z,26.70
2018-05-10T14:01:48.166Z,27.73
2018-05-10T14:04:57.952Z,25.30
2018-05-10T14:08:07.411Z,31.50
2018-05-10T14:11:17.699Z,29.53
2018-05-10T14:14:27.926Z,30.90
2018-05-10T14:17:38.038Z,32.33
2018-05-10T14:20:47.636Z,33.77
2018-05-10T14:23:57.542Z,36.93
2018-05-10T14:27:07.404Z,43.80
2018-05-10T14:30:16.887Z,52.43
2018-05-10T14:33:27.689Z,41.23
2018-05-10T14:36:37.108Z,60.13
2018-05-10T14:39:46.570Z,51.97
2018-05-10T14:42:56.203Z,53.60
2018-05-10T14:46:05.834Z,45.10
2018-05-10T14:49:15.229Z,48.53
2018-05-10T14:52:24.852Z,43.17
2018-05-10T14:55:34.945Z,46.60
2018-05-10T14:58:44.292Z,42.03
2018-05-10T15:01:53.664Z,39.80
2018-05-10T15:05:03.818Z,40.10
2018-05-10T15:08:14.031Z,47.07
2018-05-10T15:11:24.395Z,38.87
2018-05-10T15:14:34.525Z,45.70
2018-05-10T15:17:44.132Z,40.33
2018-05-10T15:20:54.598Z,42.03
2018-05-10T15:24:04.689Z,45.00
2018-05-10T15:27:15.108Z,43.47
2018-05-10T15:30:25.072Z,255.27
2018-05-10T15:33:34.993Z,43.50
2018-05-10T15:36:45.325Z,44.33
2018-05-10T15:39:54.881Z,40.17
2018-05-10T15:43:04.248Z,42.70
2018-05-10T15:46:13.620Z,43.33
2018-05-10T15:49:23.036Z,44.33
2018-05-10T15:52:33.384Z,37.70
2018-05-10T15:55:43.257Z,40.08
2018-05-10T15:58:52.613Z,38.40
2018-05-10T16:02:02.104Z,37.63
2018-05-10T16:05:11.683Z,38.77
2018-05-10T16:08:21.095Z,45.30
2018-05-10T16:11:32.864Z,34.53
2018-05-10T16:14:43.518Z,39.77
2018-05-10T16:17:57.050Z,38.60
2018-05-10T16:21:06.417Z,42.83
2018-05-10T16:24:16.691Z,45.80
2018-05-10T16:27:26.864Z,43.10
2018-05-10T16:30:37.256Z,40.80
2018-05-10T16:33:46.773Z,39.77
2018-05-10T16:36:56.330Z,43.87
2018-05-10T16:40:06.777Z,38.13
2018-05-10T16:43:16.648Z,39.57
2018-05-10T16:46:26.568Z,42.57
2018-05-10T16:49:36.695Z,40.60
2018-05-10T16:52:46.900Z,39.80
2018-05-10T16:55:57.200Z,35.83
2018-05-10T16:59:07.155Z,43.50
2018-05-10T17:02:16.756Z,39.03
2018-05-10T17:05:27.051Z,46.83
2018-05-10T17:08:37.328Z,42.30
2018-05-10T17:11:47.192Z,41.23
2018-05-10T17:14:56.548Z,45.33
2018-05-10T17:18:06.008Z,44.20
2018-05-10T17:21:16.356Z,49.93
2018-05-10T17:24:25.696Z,52.10
2018-05-10T17:27:37.229Z,47.13
2018-05-10T17:30:47.076Z,51.00
2018-05-10T17:33:56.569Z,49.43
2018-05-10T17:37:06.662Z,50.53
2018-05-10T17:40:16.927Z,56.00
2018-05-10T17:43:26.561Z,41.83
2018-05-10T17:46:38.272Z,54.33
2018-05-10T17:49:47.759Z,49.40
2018-05-10T17:52:57.273Z,49.57
2018-05-10T17:56:06.798Z,59.97
2018-05-10T17:59:17.299Z,72.50
2018-05-10T18:02:27.492Z,59.47
2018-05-10T18:05:39.445Z,65.33
2018-05-10T18:08:49.005Z,59.37
2018-05-10T18:11:58.523Z,55.53
2018-05-10T18:15:07.905Z,53.33
2018-05-10T18:18:17.459Z,59.73
2018-05-10T18:21:26.792Z,60.27
2018-05-10T18:24:36.325Z,64.07
2018-05-10T18:27:47.000Z,59.97
2018-05-10T18:30:56.772Z,67.00
2018-05-10T18:34:06.772Z,65.73
2018-05-10T18:37:16.668Z,67.20
2018-05-10T18:40:26.153Z,66.30
2018-05-10T18:43:35.627Z,70.90
2018-05-10T18:46:46.027Z,71.93
2018-05-10T18:49:56.017Z,68.47
2018-05-10T18:53:05.920Z,65.77
2018-05-10T18:56:15.376Z,51.70
2018-05-10T18:59:25.358Z,48.47
2018-05-10T19:02:35.261Z,50.07
2018-05-10T19:05:44.750Z,40.97
2018-05-10T19:08:54.261Z,42.00
2018-05-10T19:12:04.628Z,27.07
2018-05-10T19:15:14.027Z,27.70
2018-05-10T19:18:24.491Z,21.03
2018-05-10T19:21:34.236Z,21.17
2018-05-10T19:24:44.400Z,22.13
2018-05-10T19:27:53.904Z,20.63
2018-05-10T19:31:03.304Z,14.57
2018-05-10T19:34:12.806Z,19.67
2018-05-10T19:37:22.284Z,18.20
2018-05-10T19:40:31.644Z,18.03
2018-05-10T19:43:41.181Z,16.20
2018-05-10T19:46:50.549Z,12.20
2018-05-10T19:50:00.452Z,19.07
2018-05-10T19:53:09.937Z,14.73
2018-05-10T19:56:19.798Z,10.33
2018-05-10T19:59:29.280Z,13.53
2018-05-10T20:02:39.452Z,13.17
2018-05-10T20:05:49.367Z,10.37
2018-05-10T20:08:58.616Z,8.87
2018-05-10T20:12:08.056Z,9.57
2018-05-10T20:15:17.967Z,12.43
2018-05-10T20:18:28.306Z,11.93
2018-05-10T20:21:37.864Z,11.97
2018-05-10T20:24:47.956Z,12.90
2018-05-10T20:27:57.469Z,13.30
2018-05-10T20:31:07.329Z,10.43
2018-05-10T20:34:18.395Z,13.43
2018-05-10T20:37:27.803Z,13.17
2018-05-10T20:40:37.233Z,11.23
2018-05-10T20:43:47.678Z,11.00
2018-05-10T20:46:57.992Z,16.17
2018-05-10T20:50:07.974Z,10.57
2018-05-10T20:53:17.493Z,10.97
2018-05-10T20:56:26.908Z,9.77
2018-05-10T20:59:37.189Z,10.87
2018-05-10T21:02:48.697Z,11.30
2018-05-10T21:05:58.904Z,10.67
2018-05-10T21:09:08.508Z,15.03
2018-05-10T21:12:35.760Z,12.23
2018-05-10T21:15:46.939Z,10.57
2018-05-10T21:18:57.224Z,10.83
2018-05-10T21:22:07.495Z,13.57
2018-05-10T21:25:17.137Z,8.63
2018-05-10T21:28:26.721Z,12.57
2018-05-10T21:31:36.581Z,11.30
2018-05-10T21:34:48.056Z,14.23
2018-05-10T21:37:58.036Z,11.17
2018-05-10T21:41:07.516Z,12.13
2018-05-10T21:44:17.420Z,11.20
2018-05-10T21:47:27.376Z,13.73
2018-05-10T21:50:36.839Z,12.60
2018-05-10T21:53:46.736Z,13.33
2018-05-10T21:56:56.763Z,13.37
2018-05-10T22:00:06.209Z,12.67
2018-05-10T22:03:16.629Z,13.77
2018-05-10T22:06:26.056Z,13.63
2018-05-10T22:09:35.354Z,13.30
2018-05-10T22:12:44.677Z,17.67
2018-05-10T22:15:54.024Z,13.50
2018-05-10T22:19:03.559Z,13.67
2018-05-10T22:22:12.962Z,15.87
2018-05-10T22:25:22.995Z,17.93
2018-05-10T22:28:32.596Z,14.80
2018-05-10T22:31:42.269Z,17.07
2018-05-10T22:34:52.755Z,21.33
2018-05-10T22:38:03.031Z,19.93
2018-05-10T22:41:12.876Z,20.87
2018-05-10T22:44:22.327Z,18.13
2018-05-10T22:47:33.073Z,28.03
2018-05-10T22:50:42.426Z,22.33
2018-05-10T22:53:53.711Z,31.17
2018-05-10T22:57:03.549Z,34.80
2018-05-10T23:00:12.968Z,31.63
2018-05-10T23:03:23.064Z,28.67
2018-05-10T23:06:32.521Z,31.87
2018-05-10T23:09:42.804Z,35.70
2018-05-10T23:12:54.615Z,24.77
2018-05-10T23:16:04.923Z,33.33
2018-05-10T23:19:15.136Z,30.30
2018-05-10T23:22:25.424Z,35.97
2018-05-10T23:25:34.884Z,42.97
2018-05-10T23:28:44.836Z,31.53
2018-05-10T23:31:55.700Z,32.77
2018-05-10T23:35:05.808Z,34.77
2018-05-10T23:38:15.275Z,33.40
2018-05-10T23:41:24.735Z,59.10
2018-05-10T23:44:34.964Z,48.80
2018-05-10T23:47:45.215Z,55.07
2018-05-10T23:50:56.858Z,66.10
2018-05-10T23:54:06.369Z,59.13
2018-05-10T23:57:15.808Z,81.27
